createdAt,value
2022-11-07T00:00:09.782Z,2.42
2022-11-07T00:05:03.609Z,1.90
2022-11-07T00:07:30.411Z,1.90
2022-11-07T00:09:57.228Z,1.60
2022-11-07T00:12:24.182Z,2.03
2022-11-07T00:14:51.320Z,1.67
2022-11-07T00:17:18.525Z,2.05
2022-11-07T00:19:45.295Z,1.73
2022-11-07T00:22:12.066Z,2.28
2022-11-07T00:24:38.833Z,2.50
2022-11-07T00:27:05.697Z,1.75
2022-11-07T00:29:32.843Z,1.92
2022-11-07T00:31:59.710Z,2.00
2022-11-07T00:34:26.522Z,2.30
2022-11-07T00:36:53.302Z,2.20
2022-11-07T00:39:20.081Z,1.70
2022-11-07T00:41:47.786Z,2.58
2022-11-07T00:44:14.580Z,2.30
2022-11-07T00:46:41.366Z,1.65
2022-11-07T00:49:08.169Z,2.15
2022-11-07T00:51:34.944Z,2.72
2022-11-07T00:54:02.623Z,1.60
2022-11-07T00:56:29.431Z,2.10
2022-11-07T00:58:57.297Z,1.50
2022-11-07T01:01:25.925Z,2.13
2022-11-07T01:04:11.374Z,1.70
2022-11-07T01:06:39.680Z,1.63
2022-11-07T01:09:07.531Z,1.80
2022-11-07T01:11:36.377Z,1.80
2022-11-07T01:14:03.976Z,2.08
2022-11-07T01:16:31.477Z,1.90
2022-11-07T01:18:58.273Z,1.90
2022-11-07T01:21:25.024Z,1.70
2022-11-07T01:23:51.826Z,2.05
2022-11-07T01:26:18.640Z,1.63
2022-11-07T01:28:45.562Z,1.88
2022-11-07T01:31:13.402Z,2.13
2022-11-07T01:33:40.957Z,1.80
2022-11-07T01:36:09.076Z,2.05
2022-11-07T01:38:36.407Z,1.80
2022-11-07T01:41:21.234Z,1.77
2022-11-07T01:43:48.049Z,1.90
2022-11-07T01:46:15.230Z,2.00
2022-11-07T01:48:44.535Z,1.80
2022-11-07T01:51:11.989Z,2.10
2022-11-07T01:53:38.958Z,2.13
2022-11-07T01:56:07.869Z,2.15
2022-11-07T01:58:34.682Z,2.08
2022-11-07T02:01:01.635Z,1.90
2022-11-07T02:03:28.426Z,1.73
2022-11-07T02:05:57.623Z,1.98
2022-11-07T02:08:24.702Z,1.70
2022-11-07T02:10:52.997Z,1.90
2022-11-07T02:13:26.649Z,1.70
2022-11-07T02:15:53.763Z,1.95
2022-11-07T02:18:21.215Z,1.45
2022-11-07T02:20:48.211Z,1.60
2022-11-07T02:23:20.639Z,1.70
2022-11-07T02:25:47.522Z,1.50
2022-11-07T02:28:14.753Z,1.73
2022-11-07T02:30:41.542Z,2.22
2022-11-07T02:33:21.806Z,1.98
2022-11-07T02:35:49.975Z,2.10
2022-11-07T02:38:21.279Z,1.55
2022-11-07T02:40:51.370Z,2.10
2022-11-07T02:43:19.656Z,2.00
2022-11-07T02:45:47.941Z,2.15
2022-11-07T02:48:14.825Z,1.42
2022-11-07T02:50:42.272Z,2.50
2022-11-07T02:53:09.000Z,1.85
2022-11-07T02:55:35.843Z,1.83
2022-11-07T02:58:02.649Z,1.73
2022-11-07T03:00:29.414Z,1.40
2022-11-07T03:02:56.332Z,2.00
2022-11-07T03:05:23.113Z,1.42
2022-11-07T03:07:50.352Z,1.45
2022-11-07T03:10:17.885Z,1.90
2022-11-07T03:12:44.646Z,2.10
2022-11-07T03:15:12.051Z,1.65
2022-11-07T03:17:39.210Z,1.60
2022-11-07T03:20:06.447Z,1.83
2022-11-07T03:22:33.201Z,2.10
2022-11-07T03:24:59.982Z,1.92
2022-11-07T03:27:26.874Z,1.80
2022-11-07T03:29:53.675Z,1.67
2022-11-07T03:32:20.448Z,1.77
2022-11-07T03:34:47.218Z,2.30
2022-11-07T03:37:14.887Z,1.98
2022-11-07T03:39:42.110Z,2.05
2022-11-07T03:42:09.053Z,2.42
2022-11-07T03:44:35.802Z,2.03
2022-11-07T03:47:02.589Z,1.98
2022-11-07T03:49:29.329Z,2.13
2022-11-07T03:51:56.084Z,2.00
2022-11-07T03:54:22.903Z,2.00
2022-11-07T03:56:49.706Z,2.60
2022-11-07T03:59:16.445Z,2.42
2022-11-07T04:01:44.458Z,2.20
2022-11-07T04:04:11.465Z,2.22
2022-11-07T04:06:38.218Z,2.53
2022-11-07T04:09:05.317Z,2.17
2022-11-07T04:11:50.673Z,2.47
2022-11-07T04:14:36.207Z,2.13
2022-11-07T04:17:21.085Z,2.20
2022-11-07T04:19:48.846Z,1.85
2022-11-07T04:22:16.152Z,2.05
2022-11-07T04:24:46.037Z,2.13
2022-11-07T04:27:32.486Z,2.03
2022-11-07T04:29:59.316Z,2.45
2022-11-07T04:32:26.105Z,2.20
2022-11-07T04:34:52.873Z,2.20
2022-11-07T04:37:19.950Z,2.20
2022-11-07T04:39:46.730Z,2.70
2022-11-07T04:42:14.065Z,2.10
2022-11-07T04:44:40.889Z,2.05
2022-11-07T04:47:07.650Z,2.22
2022-11-07T04:49:34.545Z,1.73
2022-11-07T04:52:01.365Z,2.08
2022-11-07T04:54:28.233Z,2.22
2022-11-07T04:56:55.090Z,1.98
2022-11-07T04:59:21.842Z,2.25
2022-11-07T05:01:48.709Z,1.42
2022-11-07T05:04:15.645Z,2.10
2022-11-07T05:06:42.424Z,2.30
2022-11-07T05:09:09.603Z,2.13
2022-11-07T05:11:36.440Z,2.08
2022-11-07T05:14:03.173Z,1.88
2022-11-07T05:16:31.155Z,2.10
2022-11-07T05:18:57.939Z,2.17
2022-11-07T05:21:24.709Z,1.75
2022-11-07T05:23:51.470Z,1.70
2022-11-07T05:26:18.339Z,2.00
2022-11-07T05:28:45.116Z,2.15
2022-11-07T05:31:14.600Z,1.52
2022-11-07T05:33:41.407Z,1.67
2022-11-07T05:36:15.687Z,1.45
2022-11-07T05:38:43.852Z,1.92
2022-11-07T05:41:10.907Z,1.83
2022-11-07T05:43:38.610Z,1.60
2022-11-07T05:46:06.127Z,2.38
2022-11-07T05:48:32.957Z,2.30
2022-11-07T05:51:00.149Z,1.38
2022-11-07T05:53:27.295Z,1.83
2022-11-07T05:55:54.581Z,1.70
2022-11-07T05:58:21.720Z,1.83
2022-11-07T06:00:48.823Z,1.90
2022-11-07T06:03:16.090Z,2.22
2022-11-07T06:05:43.474Z,2.00
2022-11-07T06:08:11.376Z,1.83
2022-11-07T06:10:38.556Z,1.75
2022-11-07T06:13:07.007Z,1.67
2022-11-07T06:15:35.069Z,2.95
2022-11-07T06:18:02.483Z,1.85
2022-11-07T06:20:29.821Z,2.03
2022-11-07T06:22:57.396Z,1.90
2022-11-07T06:25:24.323Z,2.15
2022-11-07T06:27:51.077Z,1.90
2022-11-07T06:30:17.911Z,1.70
2022-11-07T06:32:45.800Z,1.88
2022-11-07T06:35:12.891Z,1.77
2022-11-07T06:37:39.783Z,2.22
2022-11-07T06:40:06.878Z,1.90
2022-11-07T06:42:33.625Z,1.90
2022-11-07T06:45:00.440Z,2.17
2022-11-07T06:47:28.466Z,1.90
2022-11-07T06:49:55.261Z,2.30
2022-11-07T06:52:22.459Z,2.50
2022-11-07T06:54:49.206Z,1.92
2022-11-07T06:57:16.051Z,2.28
2022-11-07T06:59:45.513Z,2.13
2022-11-07T07:02:30.763Z,1.98
2022-11-07T07:05:04.161Z,2.15
2022-11-07T07:07:30.932Z,2.10
2022-11-07T07:09:57.725Z,3.03
2022-11-07T07:12:26.420Z,2.28
2022-11-07T07:14:53.218Z,2.40
2022-11-07T07:17:20.003Z,2.42
2022-11-07T07:19:46.773Z,2.20
2022-11-07T07:22:16.804Z,2.67
2022-11-07T07:24:43.588Z,1.98
2022-11-07T07:27:10.734Z,1.98
2022-11-07T07:29:37.486Z,1.80
2022-11-07T07:32:04.326Z,2.05
2022-11-07T07:34:31.099Z,2.78
2022-11-07T07:36:57.887Z,2.05
2022-11-07T07:39:25.511Z,1.90
2022-11-07T07:41:52.349Z,2.55
2022-11-07T07:44:19.102Z,2.05
2022-11-07T07:46:45.899Z,1.75
2022-11-07T07:49:12.659Z,1.77
2022-11-07T07:51:39.423Z,2.13
2022-11-07T07:54:06.209Z,2.38
2022-11-07T07:56:33.225Z,1.80
2022-11-07T07:59:00.037Z,1.92
2022-11-07T08:01:27.064Z,1.42
2022-11-07T08:04:02.816Z,2.20
2022-11-07T08:06:30.067Z,2.13
2022-11-07T08:08:56.960Z,2.05
2022-11-07T08:11:23.837Z,2.33
2022-11-07T08:13:50.578Z,1.80
2022-11-07T08:16:17.634Z,2.22
2022-11-07T08:18:44.399Z,2.17
2022-11-07T08:21:11.138Z,1.63
2022-11-07T08:23:38.135Z,1.70
2022-11-07T08:26:05.274Z,1.85
2022-11-07T08:28:33.480Z,1.80
2022-11-07T08:31:05.079Z,2.03
2022-11-07T08:33:32.243Z,1.95
2022-11-07T08:36:03.145Z,1.80
2022-11-07T08:38:30.937Z,2.25
2022-11-07T08:40:58.078Z,3.00
2022-11-07T08:43:24.989Z,2.13
2022-11-07T08:45:52.675Z,1.90
2022-11-07T08:48:19.695Z,2.28
2022-11-07T08:50:46.585Z,1.92
2022-11-07T08:53:13.417Z,1.75
2022-11-07T08:55:40.213Z,2.03
2022-11-07T08:58:07.763Z,2.03
2022-11-07T09:00:35.680Z,2.08
2022-11-07T09:05:50.295Z,2.00
2022-11-07T09:08:17.474Z,1.90
2022-11-07T09:10:44.271Z,2.03
2022-11-07T09:13:11.098Z,2.08
2022-11-07T09:15:37.930Z,1.58
2022-11-07T09:18:05.932Z,2.65
2022-11-07T09:20:33.539Z,1.80
2022-11-07T09:23:00.521Z,2.60
2022-11-07T09:25:27.675Z,2.03
2022-11-07T09:27:55.445Z,2.40
2022-11-07T09:30:22.487Z,2.45
2022-11-07T09:32:49.266Z,2.53
2022-11-07T09:35:16.099Z,2.00
2022-11-07T09:37:42.903Z,2.45
2022-11-07T09:40:24.696Z,1.75
2022-11-07T09:42:57.055Z,2.42
2022-11-07T09:45:24.055Z,2.10
2022-11-07T09:48:03.196Z,2.80
2022-11-07T09:50:33.326Z,2.63
2022-11-07T09:53:15.037Z,2.38
2022-11-07T09:55:48.251Z,2.13
2022-11-07T09:58:20.695Z,2.05
2022-11-07T10:00:47.466Z,2.50
2022-11-07T10:03:14.611Z,2.58
2022-11-07T10:05:54.094Z,2.10
2022-11-07T10:08:50.181Z,2.38
2022-11-07T10:11:25.995Z,2.65
2022-11-07T10:13:59.546Z,2.63
2022-11-07T10:16:26.413Z,2.65
2022-11-07T10:18:53.139Z,2.47
2022-11-07T10:21:39.203Z,1.80
2022-11-07T10:24:09.259Z,2.17
2022-11-07T10:26:36.815Z,2.83
2022-11-07T10:29:12.611Z,2.40
2022-11-07T10:32:02.134Z,2.60
2022-11-07T10:34:35.974Z,2.28
2022-11-07T10:37:03.353Z,2.28
2022-11-07T10:39:30.961Z,2.70
2022-11-07T10:42:06.006Z,2.67
2022-11-07T10:44:33.849Z,2.88
2022-11-07T10:47:02.182Z,3.13
2022-11-07T10:49:30.315Z,2.45
2022-11-07T10:52:07.673Z,2.88
2022-11-07T10:54:34.428Z,2.88
2022-11-07T10:57:07.059Z,2.22
2022-11-07T10:59:36.711Z,2.75
2022-11-07T11:02:15.954Z,2.28
2022-11-07T11:04:50.742Z,2.92
2022-11-07T11:07:21.833Z,2.50
2022-11-07T11:09:53.454Z,2.50
2022-11-07T11:12:46.581Z,2.83
2022-11-07T11:15:15.253Z,2.85
2022-11-07T11:17:42.112Z,2.35
2022-11-07T11:20:26.812Z,2.80
2022-11-07T11:22:53.924Z,2.85
2022-11-07T11:25:21.799Z,2.08
2022-11-07T11:27:51.568Z,2.65
2022-11-07T11:30:19.900Z,2.67
2022-11-07T11:33:05.607Z,3.63
2022-11-07T11:35:41.955Z,2.60
2022-11-07T11:38:09.119Z,3.47
2022-11-07T11:40:38.059Z,2.92
2022-11-07T11:43:04.797Z,2.40
2022-11-07T11:45:35.724Z,2.95
2022-11-07T11:48:07.161Z,2.67
2022-11-07T11:53:00.761Z,2.78
2022-11-07T11:55:31.577Z,2.35
2022-11-07T11:58:05.615Z,2.28
2022-11-07T12:00:36.209Z,2.13
2022-11-07T12:03:15.278Z,1.98
2022-11-07T12:05:45.219Z,2.35
2022-11-07T12:08:11.958Z,1.80
2022-11-07T12:10:39.010Z,2.63
2022-11-07T12:13:05.728Z,1.90
2022-11-07T12:15:39.705Z,2.00
2022-11-07T12:18:24.653Z,2.47
2022-11-07T12:21:02.205Z,2.10
2022-11-07T12:23:52.014Z,1.80
2022-11-07T12:26:24.849Z,2.10
2022-11-07T12:29:00.128Z,2.40
2022-11-07T12:31:35.687Z,2.05
2022-11-07T12:34:11.562Z,2.83
2022-11-07T12:36:45.477Z,2.90
2022-11-07T12:39:12.231Z,2.90
2022-11-07T12:41:47.853Z,3.72
2022-11-07T12:44:37.900Z,3.10
2022-11-07T12:47:12.299Z,3.58
2022-11-07T12:49:58.038Z,3.22
2022-11-07T12:52:40.317Z,3.45
2022-11-07T12:55:19.541Z,3.50
2022-11-07T12:57:47.431Z,3.58
2022-11-07T13:00:23.301Z,4.07
2022-11-07T13:02:58.878Z,3.60
2022-11-07T13:05:40.973Z,3.97
2022-11-07T13:08:10.759Z,3.63
2022-11-07T13:10:52.982Z,3.50
2022-11-07T13:13:40.005Z,3.38
2022-11-07T13:16:25.242Z,3.45
2022-11-07T13:18:52.208Z,3.17
2022-11-07T13:21:18.948Z,3.58
2022-11-07T13:23:46.937Z,3.40
2022-11-07T13:26:45.066Z,3.25
2022-11-07T13:29:01.826Z,4.38
2022-11-07T13:31:33.221Z,3.03
2022-11-07T13:36:27.345Z,2.90
2022-11-07T13:38:58.667Z,3.00
2022-11-07T13:41:25.470Z,3.47
2022-11-07T13:43:55.395Z,3.80
2022-11-07T13:46:31.760Z,2.78
2022-11-07T13:49:00.993Z,2.78
2022-11-07T13:51:48.714Z,2.65
2022-11-07T13:54:27.621Z,2.30
2022-11-07T13:56:56.965Z,3.08
2022-11-07T13:59:43.249Z,2.83
2022-11-07T14:02:39.630Z,2.67
2022-11-07T14:07:54.354Z,2.63
2022-11-07T14:10:30.622Z,3.00
2022-11-07T14:13:07.502Z,3.33
2022-11-07T14:15:35.566Z,3.47
2022-11-07T14:18:02.796Z,3.13
2022-11-07T14:20:30.712Z,2.63
2022-11-07T14:23:00.451Z,2.60
2022-11-07T14:25:34.335Z,2.92
2022-11-07T14:28:01.268Z,3.15
2022-11-07T14:30:29.118Z,2.38
2022-11-07T14:32:59.858Z,2.67
2022-11-07T14:35:34.050Z,2.83
2022-11-07T14:38:11.100Z,2.75
2022-11-07T14:40:38.292Z,3.42
2022-11-07T14:43:05.078Z,2.35
2022-11-07T14:46:06.021Z,3.55
2022-11-07T14:48:20.914Z,2.85
2022-11-07T14:50:47.979Z,2.35
2022-11-07T14:53:19.412Z,3.22
2022-11-07T14:55:49.377Z,2.55
2022-11-07T14:58:16.661Z,2.80
2022-11-07T15:01:10.435Z,3.33
2022-11-07T15:03:38.227Z,3.22
2022-11-07T15:06:05.117Z,3.65
2022-11-07T15:08:33.809Z,2.53
2022-11-07T15:11:03.719Z,2.60
2022-11-07T15:13:33.293Z,3.00
2022-11-07T15:16:08.007Z,2.83
2022-11-07T15:18:38.968Z,3.08
2022-11-07T15:21:06.237Z,3.35
2022-11-07T15:23:34.241Z,2.20
2022-11-07T15:26:07.172Z,2.70
2022-11-07T15:28:46.178Z,2.58
2022-11-07T15:31:19.379Z,3.10
2022-11-07T15:33:46.172Z,2.60
2022-11-07T15:36:14.230Z,2.67
2022-11-07T15:38:41.419Z,2.40
2022-11-07T15:41:08.219Z,2.03
2022-11-07T15:43:35.071Z,1.80
2022-11-07T15:46:02.855Z,2.08
2022-11-07T15:48:33.735Z,2.10
2022-11-07T15:51:03.784Z,1.60
2022-11-07T15:53:30.561Z,2.40
2022-11-07T15:56:01.475Z,2.00
2022-11-07T15:58:29.697Z,2.00
2022-11-07T16:00:57.513Z,1.63
2022-11-07T16:03:25.205Z,1.80
2022-11-07T16:05:53.186Z,1.95
2022-11-07T16:08:21.347Z,1.63
2022-11-07T16:10:53.176Z,2.00
2022-11-07T16:13:19.971Z,1.75
2022-11-07T16:15:48.735Z,2.03
2022-11-07T16:18:16.695Z,1.55
2022-11-07T16:20:44.041Z,1.80
2022-11-07T16:23:11.097Z,1.90
2022-11-07T16:25:40.080Z,1.90
2022-11-07T16:28:10.561Z,2.42
2022-11-07T16:30:37.304Z,1.90
2022-11-07T16:33:04.099Z,2.10
2022-11-07T16:35:30.974Z,1.70
2022-11-07T16:37:58.797Z,2.45
2022-11-07T16:40:25.623Z,1.95
2022-11-07T16:42:52.396Z,2.08
2022-11-07T16:45:22.698Z,1.95
2022-11-07T16:47:49.562Z,2.20
2022-11-07T16:50:17.098Z,2.22
2022-11-07T16:52:43.880Z,2.20
2022-11-07T16:55:14.640Z,1.92
2022-11-07T16:57:41.391Z,2.10
2022-11-07T17:00:16.859Z,2.45
2022-11-07T17:02:43.768Z,2.40
2022-11-07T17:05:10.625Z,2.67
2022-11-07T17:07:37.456Z,2.70
2022-11-07T17:10:04.990Z,2.30
2022-11-07T17:12:31.748Z,2.00
2022-11-07T17:14:58.595Z,2.90
2022-11-07T17:17:25.346Z,2.20
2022-11-07T17:19:52.164Z,2.15
2022-11-07T17:22:18.955Z,2.53
2022-11-07T17:24:45.831Z,2.03
2022-11-07T17:27:20.662Z,2.28
2022-11-07T17:29:47.683Z,2.63
2022-11-07T17:32:14.500Z,2.80
2022-11-07T17:34:41.450Z,2.55
2022-11-07T17:37:12.783Z,3.00
2022-11-07T17:42:06.274Z,2.70
2022-11-07T17:44:33.068Z,2.70
2022-11-07T17:47:02.603Z,3.25
2022-11-07T17:49:29.479Z,2.00
2022-11-07T17:51:56.345Z,2.40
2022-11-07T17:54:29.052Z,2.15
2022-11-07T17:56:56.414Z,2.40
2022-11-07T17:59:23.370Z,1.83
2022-11-07T18:01:50.569Z,2.08
2022-11-07T18:04:17.451Z,1.90
2022-11-07T18:06:44.301Z,1.77
2022-11-07T18:09:15.379Z,2.22
2022-11-07T18:11:42.679Z,2.00
2022-11-07T18:14:10.048Z,1.95
2022-11-07T18:16:37.426Z,1.92
2022-11-07T18:19:05.599Z,1.83
2022-11-07T18:21:32.402Z,2.20
2022-11-07T18:23:59.206Z,2.25
2022-11-07T18:26:30.926Z,2.10
2022-11-07T18:29:00.761Z,1.95
2022-11-07T18:31:27.893Z,1.88
2022-11-07T18:33:59.321Z,1.92
2022-11-07T18:38:52.893Z,1.83
2022-11-07T18:41:21.102Z,2.00
2022-11-07T18:43:48.003Z,2.00
2022-11-07T18:46:15.642Z,2.13
2022-11-07T18:48:42.770Z,1.65
2022-11-07T18:51:15.215Z,2.30
2022-11-07T18:53:42.926Z,2.10
2022-11-07T18:56:10.278Z,1.95
2022-11-07T18:58:37.386Z,2.00
2022-11-07T19:01:05.666Z,2.47
2022-11-07T19:03:33.286Z,2.30
2022-11-07T19:06:02.717Z,2.25
2022-11-07T19:08:30.497Z,2.78
2022-11-07T19:10:57.853Z,2.20
2022-11-07T19:13:24.941Z,2.95
2022-11-07T19:15:52.135Z,2.10
2022-11-07T19:18:19.631Z,2.78
2022-11-07T19:20:46.743Z,2.03
2022-11-07T19:23:13.985Z,2.85
2022-11-07T19:25:41.590Z,2.13
2022-11-07T19:28:08.730Z,2.42
2022-11-07T19:30:36.173Z,2.10
2022-11-07T19:33:03.635Z,2.15
2022-11-07T19:35:31.063Z,1.90
2022-11-07T19:37:58.781Z,2.00
2022-11-07T19:40:25.545Z,2.58
2022-11-07T19:42:52.984Z,2.10
2022-11-07T19:45:20.074Z,2.60
2022-11-07T19:47:46.843Z,2.00
2022-11-07T19:50:13.740Z,2.83
2022-11-07T19:52:40.554Z,2.75
2022-11-07T19:55:07.800Z,2.60
2022-11-07T19:57:34.676Z,2.67
2022-11-07T20:00:01.580Z,2.20
2022-11-07T20:02:33.710Z,2.50
2022-11-07T20:05:02.535Z,2.42
2022-11-07T20:07:29.286Z,2.33
2022-11-07T20:09:56.869Z,2.35
2022-11-07T20:12:23.639Z,2.10
2022-11-07T20:14:50.417Z,2.30
2022-11-07T20:17:17.195Z,2.30
2022-11-07T20:19:43.962Z,2.20
2022-11-07T20:22:13.479Z,2.35
2022-11-07T20:24:40.271Z,2.42
2022-11-07T20:27:07.052Z,2.75
2022-11-07T20:29:33.866Z,1.77
2022-11-07T20:32:00.826Z,2.05
2022-11-07T20:34:27.659Z,1.80
2022-11-07T20:36:54.505Z,2.03
2022-11-07T20:39:21.261Z,1.95
2022-11-07T20:41:48.600Z,2.42
2022-11-07T20:44:15.841Z,2.22
2022-11-07T20:46:45.330Z,2.17
2022-11-07T20:49:13.975Z,2.10
2022-11-07T20:51:41.258Z,1.85
2022-11-07T20:54:13.263Z,2.13
2022-11-07T20:56:40.276Z,1.88
2022-11-07T20:59:07.631Z,2.45
2022-11-07T21:01:37.972Z,2.10
2022-11-07T21:04:09.460Z,2.30
2022-11-07T21:06:38.869Z,1.55
2022-11-07T21:09:05.707Z,1.98
2022-11-07T21:11:34.930Z,1.90
2022-11-07T21:14:01.919Z,1.70
2022-11-07T21:16:29.530Z,1.83
2022-11-07T21:18:56.697Z,2.17
2022-11-07T21:21:24.710Z,1.55
2022-11-07T21:23:51.681Z,1.80
2022-11-07T21:26:26.710Z,1.77
2022-11-07T21:28:55.712Z,1.70
2022-11-07T21:31:24.378Z,1.67
2022-11-07T21:33:51.785Z,2.15
2022-11-07T21:36:19.714Z,2.35
2022-11-07T21:38:47.020Z,1.92
2022-11-07T21:41:14.467Z,1.70
2022-11-07T21:43:41.451Z,1.63
2022-11-07T21:46:08.293Z,1.50
2022-11-07T21:48:35.610Z,2.28
2022-11-07T21:51:06.134Z,1.70
2022-11-07T21:53:37.487Z,1.65
2022-11-07T21:56:05.004Z,1.58
2022-11-07T21:58:31.796Z,2.22
2022-11-07T22:01:02.679Z,1.55
2022-11-07T22:03:51.486Z,1.48
2022-11-07T22:06:19.658Z,1.25
2022-11-07T22:08:51.668Z,1.48
2022-11-07T22:11:18.510Z,1.60
2022-11-07T22:13:45.327Z,1.60
2022-11-07T22:16:13.787Z,1.88
2022-11-07T22:18:40.660Z,1.70
2022-11-07T22:21:07.821Z,1.50
2022-11-07T22:23:35.756Z,1.80
2022-11-07T22:26:06.318Z,1.40
2022-11-07T22:28:33.229Z,1.38
2022-11-07T22:31:00.169Z,1.65
2022-11-07T22:33:26.907Z,1.60
2022-11-07T22:35:53.751Z,1.30
2022-11-07T22:38:20.516Z,1.85
2022-11-07T22:40:47.412Z,1.52
2022-11-07T22:43:14.518Z,1.60
2022-11-07T22:45:41.826Z,1.55
2022-11-07T22:48:09.091Z,1.38
2022-11-07T22:50:35.848Z,1.23
2022-11-07T22:53:03.399Z,1.33
2022-11-07T22:55:34.278Z,1.73
2022-11-07T22:58:01.041Z,1.60
2022-11-07T23:00:27.910Z,1.38
2022-11-07T23:02:54.706Z,1.48
2022-11-07T23:05:21.520Z,1.40
2022-11-07T23:07:52.909Z,1.55
2022-11-07T23:12:46.429Z,1.60
2022-11-07T23:15:13.284Z,1.30
2022-11-07T23:17:40.748Z,1.40
2022-11-07T23:20:08.510Z,1.30
2022-11-07T23:22:35.324Z,1.83
2022-11-07T23:25:02.111Z,1.33
2022-11-07T23:27:28.947Z,1.75
2022-11-07T23:29:55.746Z,1.73
2022-11-07T23:32:22.480Z,1.45
2022-11-07T23:34:50.292Z,1.38
2022-11-07T23:37:18.009Z,1.60
2022-11-07T23:39:44.789Z,1.40
2022-11-07T23:42:11.950Z,1.55
2022-11-07T23:44:58.679Z,1.60
2022-11-07T23:47:44.294Z,1.67
2022-11-07T23:50:29.668Z,1.50
2022-11-07T23:52:56.414Z,1.60
2022-11-07T23:55:41.963Z,1.40
2022-11-07T23:58:27.536Z,1.50
